sensor_id;sensor_type;location;lat;lon;timestamp;temperature;humidity
19947;DHT22;10135;50.702;7.276;2022-07-06T00:01:16;21.10;45.30
19947;DHT22;10135;50.702;7.276;2022-07-06T00:03:16;21.10;45.30
19947;DHT22;10135;50.702;7.276;2022-07-06T00:05:17;21.10;45.30
19947;DHT22;10135;50.702;7.276;2022-07-06T00:07:18;21.10;45.40
19947;DHT22;10135;50.702;7.276;2022-07-06T00:09:18;21.10;45.40
19947;DHT22;10135;50.702;7.276;2022-07-06T00:11:19;21.10;45.50
19947;DHT22;10135;50.702;7.276;2022-07-06T00:13:20;21.10;45.60
19947;DHT22;10135;50.702;7.276;2022-07-06T00:15:20;21.00;45.60
19947;DHT22;10135;50.702;7.276;2022-07-06T00:17:21;21.00;45.60
19947;DHT22;10135;50.702;7.276;2022-07-06T00:19:22;21.00;45.60
19947;DHT22;10135;50.702;7.276;2022-07-06T00:21:23;21.00;45.70
19947;DHT22;10135;50.702;7.276;2022-07-06T00:23:24;21.00;45.70
19947;DHT22;10135;50.702;7.276;2022-07-06T00:25:24;21.00;45.70
19947;DHT22;10135;50.702;7.276;2022-07-06T00:27:25;20.90;45.70
19947;DHT22;10135;50.702;7.276;2022-07-06T00:29:26;20.90;45.70
19947;DHT22;10135;50.702;7.276;2022-07-06T00:31:26;20.90;45.70
19947;DHT22;10135;50.702;7.276;2022-07-06T00:33:28;20.90;45.80
19947;DHT22;10135;50.702;7.276;2022-07-06T00:35:29;20.90;45.80
19947;DHT22;10135;50.702;7.276;2022-07-06T00:37:30;20.90;45.80
19947;DHT22;10135;50.702;7.276;2022-07-06T00:39:31;20.80;45.70
19947;DHT22;10135;50.702;7.276;2022-07-06T00:41:31;20.80;45.70
19947;DHT22;10135;50.702;7.276;2022-07-06T00:43:55;20.80;45.70
19947;DHT22;10135;50.702;7.276;2022-07-06T00:45:57;20.80;46.00
19947;DHT22;10135;50.702;7.276;2022-07-06T00:47:57;20.70;45.80
19947;DHT22;10135;50.702;7.276;2022-07-06T00:49:58;20.70;45.80
19947;DHT22;10135;50.702;7.276;2022-07-06T00:52:14;20.70;45.90
19947;DHT22;10135;50.702;7.276;2022-07-06T00:54:15;20.60;46.40
19947;DHT22;10135;50.702;7.276;2022-07-06T00:56:16;20.60;45.90
19947;DHT22;10135;50.702;7.276;2022-07-06T00:58:17;20.60;45.90
19947;DHT22;10135;50.702;7.276;2022-07-06T01:00:19;20.50;45.90
19947;DHT22;10135;50.702;7.276;2022-07-06T01:02:22;20.50;46.00
19947;DHT22;10135;50.702;7.276;2022-07-06T01:04:22;20.50;46.00
19947;DHT22;10135;50.702;7.276;2022-07-06T01:06:23;20.40;45.90
19947;DHT22;10135;50.702;7.276;2022-07-06T01:08:24;20.30;45.90
19947;DHT22;10135;50.702;7.276;2022-07-06T01:10:25;20.30;45.90
19947;DHT22;10135;50.702;7.276;2022-07-06T01:12:25;20.30;46.00
19947;DHT22;10135;50.702;7.276;2022-07-06T01:14:27;20.20;45.90
19947;DHT22;10135;50.702;7.276;2022-07-06T01:16:28;20.20;46.00
19947;DHT22;10135;50.702;7.276;2022-07-06T01:18:28;20.10;46.00
19947;DHT22;10135;50.702;7.276;2022-07-06T01:20:29;20.10;46.10
19947;DHT22;10135;50.702;7.276;2022-07-06T01:22:30;20.00;46.10
19947;DHT22;10135;50.702;7.276;2022-07-06T01:24:31;20.00;46.20
19947;DHT22;10135;50.702;7.276;2022-07-06T01:26:32;20.00;46.20
19947;DHT22;10135;50.702;7.276;2022-07-06T01:28:33;19.90;46.20
19947;DHT22;10135;50.702;7.276;2022-07-06T01:30:33;19.90;46.30
19947;DHT22;10135;50.702;7.276;2022-07-06T01:32:35;19.90;46.30
19947;DHT22;10135;50.702;7.276;2022-07-06T01:34:36;19.80;46.40
19947;DHT22;10135;50.702;7.276;2022-07-06T01:36:37;19.80;46.40
19947;DHT22;10135;50.702;7.276;2022-07-06T01:38:51;19.80;46.40
19947;DHT22;10135;50.702;7.276;2022-07-06T01:40:54;19.80;46.70
19947;DHT22;10135;50.702;7.276;2022-07-06T01:42:54;19.70;46.40
19947;DHT22;10135;50.702;7.276;2022-07-06T01:44:55;19.70;46.50
19947;DHT22;10135;50.702;7.276;2022-07-06T01:46:56;19.70;46.50
19947;DHT22;10135;50.702;7.276;2022-07-06T01:48:57;19.70;46.60
19947;DHT22;10135;50.702;7.276;2022-07-06T01:50:57;19.70;46.60
19947;DHT22;10135;50.702;7.276;2022-07-06T01:53:01;19.70;46.70
19947;DHT22;10135;50.702;7.276;2022-07-06T01:55:02;19.70;46.80
19947;DHT22;10135;50.702;7.276;2022-07-06T01:57:03;19.70;46.70
19947;DHT22;10135;50.702;7.276;2022-07-06T01:59:04;19.60;46.70
19947;DHT22;10135;50.702;7.276;2022-07-06T02:01:15;19.60;46.70
19947;DHT22;10135;50.702;7.276;2022-07-06T02:03:17;19.60;47.00
19947;DHT22;10135;50.702;7.276;2022-07-06T02:05:18;19.60;46.80
19947;DHT22;10135;50.702;7.276;2022-07-06T02:07:18;19.50;46.80
19947;DHT22;10135;50.702;7.276;2022-07-06T02:09:19;19.50;46.80
19947;DHT22;10135;50.702;7.276;2022-07-06T02:11:20;19.50;46.90
19947;DHT22;10135;50.702;7.276;2022-07-06T02:13:20;19.50;46.90
19947;DHT22;10135;50.702;7.276;2022-07-06T02:15:21;19.50;46.90
19947;DHT22;10135;50.702;7.276;2022-07-06T02:17:22;19.40;46.90
19947;DHT22;10135;50.702;7.276;2022-07-06T02:19:23;19.40;47.00
19947;DHT22;10135;50.702;7.276;2022-07-06T02:21:23;19.40;47.10
19947;DHT22;10135;50.702;7.276;2022-07-06T02:23:24;19.30;47.00
19947;DHT22;10135;50.702;7.276;2022-07-06T02:25:26;19.30;47.00
19947;DHT22;10135;50.702;7.276;2022-07-06T02:27:26;19.30;47.00
19947;DHT22;10135;50.702;7.276;2022-07-06T02:29:27;19.20;47.00
19947;DHT22;10135;50.702;7.276;2022-07-06T02:31:28;19.20;47.10
19947;DHT22;10135;50.702;7.276;2022-07-06T02:33:29;19.20;47.20
19947;DHT22;10135;50.702;7.276;2022-07-06T02:35:29;19.10;47.20
19947;DHT22;10135;50.702;7.276;2022-07-06T02:37:30;19.10;47.20
19947;DHT22;10135;50.702;7.276;2022-07-06T02:39:30;19.10;47.30
19947;DHT22;10135;50.702;7.276;2022-07-06T02:41:31;19.00;47.20
19947;DHT22;10135;50.702;7.276;2022-07-06T02:43:32;19.00;47.30
19947;DHT22;10135;50.702;7.276;2022-07-06T02:45:32;19.00;47.40
19947;DHT22;10135;50.702;7.276;2022-07-06T02:47:33;19.00;47.40
19947;DHT22;10135;50.702;7.276;2022-07-06T02:49:34;18.90;47.40
19947;DHT22;10135;50.702;7.276;2022-07-06T02:51:34;18.90;47.50
19947;DHT22;10135;50.702;7.276;2022-07-06T02:53:35;18.90;47.50
19947;DHT22;10135;50.702;7.276;2022-07-06T02:55:36;18.90;47.50
19947;DHT22;10135;50.702;7.276;2022-07-06T02:57:36;18.80;47.60
19947;DHT22;10135;50.702;7.276;2022-07-06T02:59:37;18.80;47.60
19947;DHT22;10135;50.702;7.276;2022-07-06T03:01:38;18.80;47.70
19947;DHT22;10135;50.702;7.276;2022-07-06T03:03:39;18.80;47.70
19947;DHT22;10135;50.702;7.276;2022-07-06T03:05:39;18.70;47.70
19947;DHT22;10135;50.702;7.276;2022-07-06T03:07:40;18.80;47.90
19947;DHT22;10135;50.702;7.276;2022-07-06T03:09:41;18.80;47.90
19947;DHT22;10135;50.702;7.276;2022-07-06T03:11:41;18.70;47.90
19947;DHT22;10135;50.702;7.276;2022-07-06T03:13:42;18.70;47.90
19947;DHT22;10135;50.702;7.276;2022-07-06T03:15:42;18.70;47.90
19947;DHT22;10135;50.702;7.276;2022-07-06T03:17:43;18.60;47.90
19947;DHT22;10135;50.702;7.276;2022-07-06T03:19:44;18.60;48.00
19947;DHT22;10135;50.702;7.276;2022-07-06T03:21:44;18.60;48.00
19947;DHT22;10135;50.702;7.276;2022-07-06T03:23:45;18.60;48.10
19947;DHT22;10135;50.702;7.276;2022-07-06T03:25:46;18.50;48.10
19947;DHT22;10135;50.702;7.276;2022-07-06T03:27:47;18.50;48.10
19947;DHT22;10135;50.702;7.276;2022-07-06T03:29:47;18.50;48.20
19947;DHT22;10135;50.702;7.276;2022-07-06T03:31:48;18.50;48.20
19947;DHT22;10135;50.702;7.276;2022-07-06T03:33:49;18.40;48.30
19947;DHT22;10135;50.702;7.276;2022-07-06T03:35:50;18.40;48.30
19947;DHT22;10135;50.702;7.276;2022-07-06T03:37:50;18.30;48.30
19947;DHT22;10135;50.702;7.276;2022-07-06T03:39:51;18.40;48.40
19947;DHT22;10135;50.702;7.276;2022-07-06T03:41:51;18.30;48.40
19947;DHT22;10135;50.702;7.276;2022-07-06T03:43:52;18.30;48.50
19947;DHT22;10135;50.702;7.276;2022-07-06T03:45:53;18.30;48.50
19947;DHT22;10135;50.702;7.276;2022-07-06T03:47:53;18.20;48.50
19947;DHT22;10135;50.702;7.276;2022-07-06T03:49:54;18.20;48.60
19947;DHT22;10135;50.702;7.276;2022-07-06T03:51:54;18.20;48.70
19947;DHT22;10135;50.702;7.276;2022-07-06T03:53:55;18.20;48.70
19947;DHT22;10135;50.702;7.276;2022-07-06T03:55:56;18.20;48.70
19947;DHT22;10135;50.702;7.276;2022-07-06T03:58:15;18.20;48.80
19947;DHT22;10135;50.702;7.276;2022-07-06T04:00:16;18.20;48.80
19947;DHT22;10135;50.702;7.276;2022-07-06T04:02:17;18.20;48.80
19947;DHT22;10135;50.702;7.276;2022-07-06T04:04:17;18.20;48.90
19947;DHT22;10135;50.702;7.276;2022-07-06T04:06:18;18.20;48.90
19947;DHT22;10135;50.702;7.276;2022-07-06T04:08:19;18.20;49.00
19947;DHT22;10135;50.702;7.276;2022-07-06T04:10:20;18.10;48.90
19947;DHT22;10135;50.702;7.276;2022-07-06T04:12:21;18.20;49.10
19947;DHT22;10135;50.702;7.276;2022-07-06T04:14:21;18.20;49.80
19947;DHT22;10135;50.702;7.276;2022-07-06T04:16:22;18.20;49.10
19947;DHT22;10135;50.702;7.276;2022-07-06T04:18:23;18.20;49.20
19947;DHT22;10135;50.702;7.276;2022-07-06T04:20:24;18.20;49.30
19947;DHT22;10135;50.702;7.276;2022-07-06T04:22:26;18.20;49.30
19947;DHT22;10135;50.702;7.276;2022-07-06T04:24:26;18.30;49.40
19947;DHT22;10135;50.702;7.276;2022-07-06T04:26:27;18.30;49.40
19947;DHT22;10135;50.702;7.276;2022-07-06T04:28:28;18.30;49.40
19947;DHT22;10135;50.702;7.276;2022-07-06T04:30:29;18.30;49.40
19947;DHT22;10135;50.702;7.276;2022-07-06T04:32:30;18.40;49.50
19947;DHT22;10135;50.702;7.276;2022-07-06T04:34:31;18.40;49.40
19947;DHT22;10135;50.702;7.276;2022-07-06T04:36:32;18.40;49.40
19947;DHT22;10135;50.702;7.276;2022-07-06T04:38:32;18.30;49.40
19947;DHT22;10135;50.702;7.276;2022-07-06T04:40:33;18.40;49.50
19947;DHT22;10135;50.702;7.276;2022-07-06T04:42:34;18.30;49.40
19947;DHT22;10135;50.702;7.276;2022-07-06T04:44:34;18.40;49.50
19947;DHT22;10135;50.702;7.276;2022-07-06T04:46:35;18.40;49.50
19947;DHT22;10135;50.702;7.276;2022-07-06T04:48:35;18.40;49.60
19947;DHT22;10135;50.702;7.276;2022-07-06T04:50:39;18.30;49.50
19947;DHT22;10135;50.702;7.276;2022-07-06T04:52:40;18.30;49.60
19947;DHT22;10135;50.702;7.276;2022-07-06T04:54:40;18.30;49.60
19947;DHT22;10135;50.702;7.276;2022-07-06T04:56:41;18.40;49.70
19947;DHT22;10135;50.702;7.276;2022-07-06T04:58:42;18.30;49.70
19947;DHT22;10135;50.702;7.276;2022-07-06T05:00:42;18.40;49.80
19947;DHT22;10135;50.702;7.276;2022-07-06T05:02:43;18.30;49.70
19947;DHT22;10135;50.702;7.276;2022-07-06T05:04:43;18.30;49.70
19947;DHT22;10135;50.702;7.276;2022-07-06T05:06:44;18.30;49.80
19947;DHT22;10135;50.702;7.276;2022-07-06T05:08:46;18.30;49.80
19947;DHT22;10135;50.702;7.276;2022-07-06T05:10:48;18.30;49.90
19947;DHT22;10135;50.702;7.276;2022-07-06T05:12:49;18.30;50.00
19947;DHT22;10135;50.702;7.276;2022-07-06T05:14:49;18.30;49.90
19947;DHT22;10135;50.702;7.276;2022-07-06T05:16:50;18.30;49.90
19947;DHT22;10135;50.702;7.276;2022-07-06T05:18:51;18.30;49.90
19947;DHT22;10135;50.702;7.276;2022-07-06T05:20:51;18.30;50.00
19947;DHT22;10135;50.702;7.276;2022-07-06T05:22:52;18.30;50.00
19947;DHT22;10135;50.702;7.276;2022-07-06T05:24:53;18.30;50.00
19947;DHT22;10135;50.702;7.276;2022-07-06T05:26:53;18.40;50.10
19947;DHT22;10135;50.702;7.276;2022-07-06T05:28:54;18.30;50.10
19947;DHT22;10135;50.702;7.276;2022-07-06T05:30:55;18.40;50.10
19947;DHT22;10135;50.702;7.276;2022-07-06T05:32:55;18.30;50.10
19947;DHT22;10135;50.702;7.276;2022-07-06T05:34:56;18.40;50.20
19947;DHT22;10135;50.702;7.276;2022-07-06T05:36:57;18.30;50.10
19947;DHT22;10135;50.702;7.276;2022-07-06T05:38:57;18.30;50.20
19947;DHT22;10135;50.702;7.276;2022-07-06T05:40:58;18.30;50.20
19947;DHT22;10135;50.702;7.276;2022-07-06T05:42:59;18.30;50.30
19947;DHT22;10135;50.702;7.276;2022-07-06T05:44:59;18.30;50.30
19947;DHT22;10135;50.702;7.276;2022-07-06T05:47:00;18.40;50.40
19947;DHT22;10135;50.702;7.276;2022-07-06T05:49:19;18.30;50.30
19947;DHT22;10135;50.702;7.276;2022-07-06T05:51:38;18.40;50.40
19947;DHT22;10135;50.702;7.276;2022-07-06T05:53:39;18.40;50.40
19947;DHT22;10135;50.702;7.276;2022-07-06T05:55:39;18.40;50.50
19947;DHT22;10135;50.702;7.276;2022-07-06T05:57:40;18.50;50.50
19947;DHT22;10135;50.702;7.276;2022-07-06T05:59:41;18.50;50.50
19947;DHT22;10135;50.702;7.276;2022-07-06T06:01:41;18.60;50.60
19947;DHT22;10135;50.702;7.276;2022-07-06T06:03:42;18.60;50.60
19947;DHT22;10135;50.702;7.276;2022-07-06T06:05:42;18.60;50.60
19947;DHT22;10135;50.702;7.276;2022-07-06T06:07:44;18.60;50.50
19947;DHT22;10135;50.702;7.276;2022-07-06T06:09:46;18.60;50.50
19947;DHT22;10135;50.702;7.276;2022-07-06T06:11:47;18.60;50.50
19947;DHT22;10135;50.702;7.276;2022-07-06T06:13:47;18.60;50.60
19947;DHT22;10135;50.702;7.276;2022-07-06T06:15:48;18.60;50.60
19947;DHT22;10135;50.702;7.276;2022-07-06T06:17:49;18.60;50.60
19947;DHT22;10135;50.702;7.276;2022-07-06T06:19:50;18.70;50.70
19947;DHT22;10135;50.702;7.276;2022-07-06T06:21:50;18.70;50.70
19947;DHT22;10135;50.702;7.276;2022-07-06T06:23:52;18.70;50.60
19947;DHT22;10135;50.702;7.276;2022-07-06T06:25:52;18.70;50.70
19947;DHT22;10135;50.702;7.276;2022-07-06T06:27:53;18.70;50.70
19947;DHT22;10135;50.702;7.276;2022-07-06T06:29:54;18.70;50.70
19947;DHT22;10135;50.702;7.276;2022-07-06T06:31:54;18.80;50.70
19947;DHT22;10135;50.702;7.276;2022-07-06T06:33:55;18.80;50.70
19947;DHT22;10135;50.702;7.276;2022-07-06T06:35:56;18.80;50.70
19947;DHT22;10135;50.702;7.276;2022-07-06T06:37:56;18.80;50.70
19947;DHT22;10135;50.702;7.276;2022-07-06T06:39:57;18.90;50.80
19947;DHT22;10135;50.702;7.276;2022-07-06T06:41:58;18.90;50.90
19947;DHT22;10135;50.702;7.276;2022-07-06T06:43:59;18.90;50.90
19947;DHT22;10135;50.702;7.276;2022-07-06T06:45:59;19.00;51.00
19947;DHT22;10135;50.702;7.276;2022-07-06T06:48:00;19.00;50.90
19947;DHT22;10135;50.702;7.276;2022-07-06T06:50:00;19.10;50.90
19947;DHT22;10135;50.702;7.276;2022-07-06T06:52:01;19.10;50.90
19947;DHT22;10135;50.702;7.276;2022-07-06T06:54:02;19.20;50.80
19947;DHT22;10135;50.702;7.276;2022-07-06T06:56:03;19.20;50.80
19947;DHT22;10135;50.702;7.276;2022-07-06T06:58:04;19.20;50.70
19947;DHT22;10135;50.702;7.276;2022-07-06T07:00:05;19.20;50.60
19947;DHT22;10135;50.702;7.276;2022-07-06T07:02:06;19.20;50.70
19947;DHT22;10135;50.702;7.276;2022-07-06T07:04:07;19.20;50.70
19947;DHT22;10135;50.702;7.276;2022-07-06T07:06:07;19.20;50.70
19947;DHT22;10135;50.702;7.276;2022-07-06T07:08:08;19.20;50.80
19947;DHT22;10135;50.702;7.276;2022-07-06T07:10:09;19.20;50.80
19947;DHT22;10135;50.702;7.276;2022-07-06T07:12:10;19.20;50.80
19947;DHT22;10135;50.702;7.276;2022-07-06T07:14:12;19.20;50.80
19947;DHT22;10135;50.702;7.276;2022-07-06T07:16:12;19.20;50.80
19947;DHT22;10135;50.702;7.276;2022-07-06T07:18:13;19.20;50.80
19947;DHT22;10135;50.702;7.276;2022-07-06T07:20:14;19.30;50.90
19947;DHT22;10135;50.702;7.276;2022-07-06T07:22:14;19.20;50.90
19947;DHT22;10135;50.702;7.276;2022-07-06T07:24:15;19.20;50.80
19947;DHT22;10135;50.702;7.276;2022-07-06T07:26:16;19.30;50.90
19947;DHT22;10135;50.702;7.276;2022-07-06T07:28:17;19.30;50.90
19947;DHT22;10135;50.702;7.276;2022-07-06T07:30:18;19.30;50.90
19947;DHT22;10135;50.702;7.276;2022-07-06T07:32:19;19.30;50.90
19947;DHT22;10135;50.702;7.276;2022-07-06T07:34:20;19.40;50.90
19947;DHT22;10135;50.702;7.276;2022-07-06T07:36:20;19.40;51.50
19947;DHT22;10135;50.702;7.276;2022-07-06T07:38:21;19.40;50.80
19947;DHT22;10135;50.702;7.276;2022-07-06T07:40:22;19.40;50.80
19947;DHT22;10135;50.702;7.276;2022-07-06T07:42:22;19.40;50.70
19947;DHT22;10135;50.702;7.276;2022-07-06T07:44:23;19.40;50.70
19947;DHT22;10135;50.702;7.276;2022-07-06T07:46:25;19.40;50.80
19947;DHT22;10135;50.702;7.276;2022-07-06T07:48:26;19.50;50.80
19947;DHT22;10135;50.702;7.276;2022-07-06T07:50:26;19.50;50.80
19947;DHT22;10135;50.702;7.276;2022-07-06T07:52:27;19.50;50.80
19947;DHT22;10135;50.702;7.276;2022-07-06T07:54:27;19.50;50.70
19947;DHT22;10135;50.702;7.276;2022-07-06T07:56:28;19.50;50.70
19947;DHT22;10135;50.702;7.276;2022-07-06T07:58:29;19.50;50.70
19947;DHT22;10135;50.702;7.276;2022-07-06T08:00:29;19.50;50.70
19947;DHT22;10135;50.702;7.276;2022-07-06T08:02:30;19.50;50.70
19947;DHT22;10135;50.702;7.276;2022-07-06T08:04:30;19.50;50.70
19947;DHT22;10135;50.702;7.276;2022-07-06T08:06:31;19.50;50.70
19947;DHT22;10135;50.702;7.276;2022-07-06T08:08:32;19.50;50.70
19947;DHT22;10135;50.702;7.276;2022-07-06T08:10:33;19.50;50.80
19947;DHT22;10135;50.702;7.276;2022-07-06T08:12:34;19.50;50.80
19947;DHT22;10135;50.702;7.276;2022-07-06T08:14:34;19.50;50.80
19947;DHT22;10135;50.702;7.276;2022-07-06T08:16:37;19.50;50.80
19947;DHT22;10135;50.702;7.276;2022-07-06T08:18:38;19.60;50.80
19947;DHT22;10135;50.702;7.276;2022-07-06T08:20:38;19.60;50.70
19947;DHT22;10135;50.702;7.276;2022-07-06T08:22:40;19.60;50.80
19947;DHT22;10135;50.702;7.276;2022-07-06T08:24:42;19.60;50.70
19947;DHT22;10135;50.702;7.276;2022-07-06T08:26:43;19.70;50.80
19947;DHT22;10135;50.702;7.276;2022-07-06T08:28:44;19.70;50.80
19947;DHT22;10135;50.702;7.276;2022-07-06T08:30:45;19.70;50.80
19947;DHT22;10135;50.702;7.276;2022-07-06T08:32:46;19.70;50.70
19947;DHT22;10135;50.702;7.276;2022-07-06T08:34:47;19.80;50.70
19947;DHT22;10135;50.702;7.276;2022-07-06T08:36:48;19.80;50.70
19947;DHT22;10135;50.702;7.276;2022-07-06T08:38:49;19.80;50.80
19947;DHT22;10135;50.702;7.276;2022-07-06T08:40:50;19.80;50.70
19947;DHT22;10135;50.702;7.276;2022-07-06T08:42:54;19.80;50.80
19947;DHT22;10135;50.702;7.276;2022-07-06T08:44:59;19.80;50.80
19947;DHT22;10135;50.702;7.276;2022-07-06T08:47:04;19.90;50.80
19947;DHT22;10135;50.702;7.276;2022-07-06T08:49:08;19.90;50.80
19947;DHT22;10135;50.702;7.276;2022-07-06T08:51:13;19.90;50.70
19947;DHT22;10135;50.702;7.276;2022-07-06T08:53:17;20.00;50.80
19947;DHT22;10135;50.702;7.276;2022-07-06T08:55:17;20.00;50.80
19947;DHT22;10135;50.702;7.276;2022-07-06T08:57:18;20.00;50.80
19947;DHT22;10135;50.702;7.276;2022-07-06T08:59:19;20.00;50.70
19947;DHT22;10135;50.702;7.276;2022-07-06T09:01:21;20.10;50.60
19947;DHT22;10135;50.702;7.276;2022-07-06T09:03:23;20.10;50.50
19947;DHT22;10135;50.702;7.276;2022-07-06T09:05:24;20.20;50.50
19947;DHT22;10135;50.702;7.276;2022-07-06T09:07:28;20.20;50.50
19947;DHT22;10135;50.702;7.276;2022-07-06T09:09:30;20.20;50.50
19947;DHT22;10135;50.702;7.276;2022-07-06T09:11:31;20.20;50.50
19947;DHT22;10135;50.702;7.276;2022-07-06T09:13:32;20.20;50.50
19947;DHT22;10135;50.702;7.276;2022-07-06T09:15:34;20.20;50.40
19947;DHT22;10135;50.702;7.276;2022-07-06T09:17:40;20.20;50.40
19947;DHT22;10135;50.702;7.276;2022-07-06T09:19:45;20.30;50.40
19947;DHT22;10135;50.702;7.276;2022-07-06T09:21:48;20.30;50.40
19947;DHT22;10135;50.702;7.276;2022-07-06T09:23:53;20.30;50.40
19947;DHT22;10135;50.702;7.276;2022-07-06T09:25:57;20.40;50.40
19947;DHT22;10135;50.702;7.276;2022-07-06T09:27:59;20.40;50.30
19947;DHT22;10135;50.702;7.276;2022-07-06T09:30:00;20.50;50.20
19947;DHT22;10135;50.702;7.276;2022-07-06T09:32:04;20.50;50.10
19947;DHT22;10135;50.702;7.276;2022-07-06T09:34:08;20.50;50.00
19947;DHT22;10135;50.702;7.276;2022-07-06T09:36:12;20.60;49.90
19947;DHT22;10135;50.702;7.276;2022-07-06T09:38:14;20.60;49.90
19947;DHT22;10135;50.702;7.276;2022-07-06T09:40:17;20.60;49.80
19947;DHT22;10135;50.702;7.276;2022-07-06T09:42:24;20.60;50.00
19947;DHT22;10135;50.702;7.276;2022-07-06T09:44:31;20.60;49.80
19947;DHT22;10135;50.702;7.276;2022-07-06T09:46:39;20.70;49.80
19947;DHT22;10135;50.702;7.276;2022-07-06T09:48:41;20.80;49.80
19947;DHT22;10135;50.702;7.276;2022-07-06T09:50:43;20.80;49.50
19947;DHT22;10135;50.702;7.276;2022-07-06T09:52:54;20.90;49.30
19947;DHT22;10135;50.702;7.276;2022-07-06T09:54:55;20.90;49.10
19947;DHT22;10135;50.702;7.276;2022-07-06T09:56:56;20.90;49.10
19947;DHT22;10135;50.702;7.276;2022-07-06T09:58:57;21.00;49.10
19947;DHT22;10135;50.702;7.276;2022-07-06T10:00:58;21.00;49.00
19947;DHT22;10135;50.702;7.276;2022-07-06T10:03:00;21.00;49.00
19947;DHT22;10135;50.702;7.276;2022-07-06T10:05:01;21.00;48.90
19947;DHT22;10135;50.702;7.276;2022-07-06T10:07:04;21.00;49.00
19947;DHT22;10135;50.702;7.276;2022-07-06T10:09:07;21.00;49.00
19947;DHT22;10135;50.702;7.276;2022-07-06T10:11:09;20.90;48.90
19947;DHT22;10135;50.702;7.276;2022-07-06T10:13:19;20.90;48.90
19947;DHT22;10135;50.702;7.276;2022-07-06T10:15:26;20.90;48.70
19947;DHT22;10135;50.702;7.276;2022-07-06T10:17:28;20.90;48.80
19947;DHT22;10135;50.702;7.276;2022-07-06T10:19:30;21.00;48.90
19947;DHT22;10135;50.702;7.276;2022-07-06T10:21:32;21.00;48.90
19947;DHT22;10135;50.702;7.276;2022-07-06T10:23:35;21.00;49.00
19947;DHT22;10135;50.702;7.276;2022-07-06T10:25:37;21.00;49.00
19947;DHT22;10135;50.702;7.276;2022-07-06T10:27:39;21.10;49.00
19947;DHT22;10135;50.702;7.276;2022-07-06T10:29:41;21.10;49.00
19947;DHT22;10135;50.702;7.276;2022-07-06T10:31:45;21.20;49.00
19947;DHT22;10135;50.702;7.276;2022-07-06T10:33:48;21.20;48.90
19947;DHT22;10135;50.702;7.276;2022-07-06T10:35:49;21.20;48.90
19947;DHT22;10135;50.702;7.276;2022-07-06T10:38:04;21.20;48.80
19947;DHT22;10135;50.702;7.276;2022-07-06T10:40:06;21.30;48.70
19947;DHT22;10135;50.702;7.276;2022-07-06T10:42:49;21.30;48.80
19947;DHT22;10135;50.702;7.276;2022-07-06T10:44:57;21.30;48.70
19947;DHT22;10135;50.702;7.276;2022-07-06T10:46:58;21.30;48.70
19947;DHT22;10135;50.702;7.276;2022-07-06T10:49:15;21.30;48.60
19947;DHT22;10135;50.702;7.276;2022-07-06T10:51:28;21.40;48.30
19947;DHT22;10135;50.702;7.276;2022-07-06T10:53:32;21.40;48.30
19947;DHT22;10135;50.702;7.276;2022-07-06T10:55:39;21.40;48.30
19947;DHT22;10135;50.702;7.276;2022-07-06T10:57:52;21.40;48.00
19947;DHT22;10135;50.702;7.276;2022-07-06T11:00:11;21.40;48.00
19947;DHT22;10135;50.702;7.276;2022-07-06T11:02:18;21.40;48.00
19947;DHT22;10135;50.702;7.276;2022-07-06T11:04:19;21.50;48.20
19947;DHT22;10135;50.702;7.276;2022-07-06T11:06:33;21.50;48.30
19947;DHT22;10135;50.702;7.276;2022-07-06T11:08:59;21.50;48.20
19947;DHT22;10135;50.702;7.276;2022-07-06T11:13:51;21.60;48.10
19947;DHT22;10135;50.702;7.276;2022-07-06T11:16:01;21.60;47.90
19947;DHT22;10135;50.702;7.276;2022-07-06T11:18:12;21.70;47.90
19947;DHT22;10135;50.702;7.276;2022-07-06T11:20:13;21.70;47.80
19947;DHT22;10135;50.702;7.276;2022-07-06T11:22:15;21.70;48.10
19947;DHT22;10135;50.702;7.276;2022-07-06T11:24:28;21.80;48.00
19947;DHT22;10135;50.702;7.276;2022-07-06T11:26:30;21.80;47.80
19947;DHT22;10135;50.702;7.276;2022-07-06T11:28:32;21.90;48.00
19947;DHT22;10135;50.702;7.276;2022-07-06T11:30:34;21.90;47.90
19947;DHT22;10135;50.702;7.276;2022-07-06T11:32:35;22.00;47.90
19947;DHT22;10135;50.702;7.276;2022-07-06T11:34:38;22.00;47.90
19947;DHT22;10135;50.702;7.276;2022-07-06T11:36:41;22.10;47.90
19947;DHT22;10135;50.702;7.276;2022-07-06T11:38:42;22.20;47.70
19947;DHT22;10135;50.702;7.276;2022-07-06T11:40:44;22.20;47.60
19947;DHT22;10135;50.702;7.276;2022-07-06T11:42:53;22.20;47.60
19947;DHT22;10135;50.702;7.276;2022-07-06T11:44:55;22.30;47.20
19947;DHT22;10135;50.702;7.276;2022-07-06T11:46:56;22.30;47.50
19947;DHT22;10135;50.702;7.276;2022-07-06T11:49:00;22.40;47.40
19947;DHT22;10135;50.702;7.276;2022-07-06T11:51:03;22.40;47.20
19947;DHT22;10135;50.702;7.276;2022-07-06T11:53:04;22.40;47.10
19947;DHT22;10135;50.702;7.276;2022-07-06T11:55:05;22.50;47.10
19947;DHT22;10135;50.702;7.276;2022-07-06T11:57:10;22.50;47.10
19947;DHT22;10135;50.702;7.276;2022-07-06T11:59:11;22.60;46.90
19947;DHT22;10135;50.702;7.276;2022-07-06T12:01:13;22.60;47.00
19947;DHT22;10135;50.702;7.276;2022-07-06T12:03:15;22.60;47.00
19947;DHT22;10135;50.702;7.276;2022-07-06T12:05:29;22.70;46.90
19947;DHT22;10135;50.702;7.276;2022-07-06T12:07:31;22.80;46.30
19947;DHT22;10135;50.702;7.276;2022-07-06T12:09:36;22.90;46.80
19947;DHT22;10135;50.702;7.276;2022-07-06T12:11:38;22.90;46.70
19947;DHT22;10135;50.702;7.276;2022-07-06T12:13:40;22.90;46.40
19947;DHT22;10135;50.702;7.276;2022-07-06T12:15:40;23.00;46.40
19947;DHT22;10135;50.702;7.276;2022-07-06T12:17:47;23.00;46.40
19947;DHT22;10135;50.702;7.276;2022-07-06T12:19:52;23.10;46.10
19947;DHT22;10135;50.702;7.276;2022-07-06T12:21:54;23.10;46.00
19947;DHT22;10135;50.702;7.276;2022-07-06T12:23:57;23.10;46.10
19947;DHT22;10135;50.702;7.276;2022-07-06T12:25:58;23.20;46.00
19947;DHT22;10135;50.702;7.276;2022-07-06T12:27:58;23.20;46.00
19947;DHT22;10135;50.702;7.276;2022-07-06T12:30:11;23.20;45.90
19947;DHT22;10135;50.702;7.276;2022-07-06T12:32:20;23.30;45.50
19947;DHT22;10135;50.702;7.276;2022-07-06T12:34:28;23.30;45.40
19947;DHT22;10135;50.702;7.276;2022-07-06T12:37:27;23.30;45.60
19947;DHT22;10135;50.702;7.276;2022-07-06T12:39:13;23.30;45.20
19947;DHT22;10135;50.702;7.276;2022-07-06T12:41:32;23.30;46.10
19947;DHT22;10135;50.702;7.276;2022-07-06T12:43:41;23.30;45.10
19947;DHT22;10135;50.702;7.276;2022-07-06T12:45:42;23.30;45.10
19947;DHT22;10135;50.702;7.276;2022-07-06T12:48:05;23.30;45.50
19947;DHT22;10135;50.702;7.276;2022-07-06T12:50:08;23.20;45.00
19947;DHT22;10135;50.702;7.276;2022-07-06T12:52:15;23.20;45.30
19947;DHT22;10135;50.702;7.276;2022-07-06T12:54:17;23.20;45.30
19947;DHT22;10135;50.702;7.276;2022-07-06T12:56:18;23.20;45.20